Time;durP1;ratioP1;P1;durP2;ratioP2;P2;SDS_P1;SDS_P2;PMS_P1;PMS_P2;Temp;Humidity;BMP_temperature;BMP_pressure;BME280_temperature;BME280_humidity;BME280_pressure;Samples;Min_cycle;Max_cycle;Signal;HPM_P1;HPM_P2
2023/04/13 00:00:44;;;;;;;3.65;2.22;;;5.90;99.90;;;;;;5061409;28;20500;-85
2023/04/13 00:03:11;;;;;;;3.38;2.00;;;5.90;99.90;;;;;;5060587;28;20385;-85
2023/04/13 00:05:40;;;;;;;2.92;1.90;;;5.90;99.90;;;;;;5052502;28;20048;-85
2023/04/13 00:08:06;;;;;;;4.25;2.20;;;6.00;99.90;;;;;;5051360;28;20427;-85
2023/04/13 00:10:35;;;;;;;4.22;2.10;;;6.00;99.90;;;;;;5059148;28;20029;-85
2023/04/13 00:13:02;;;;;;;4.78;2.22;;;6.00;99.90;;;;;;5053411;28;20108;-85
2023/04/13 00:15:28;;;;;;;4.07;2.10;;;6.00;99.90;;;;;;5053306;28;20117;-84
2023/04/13 00:17:53;;;;;;;4.78;2.13;;;6.10;99.90;;;;;;5057763;28;20504;-86
2023/04/13 00:20:19;;;;;;;3.53;2.08;;;6.20;99.90;;;;;;5054131;28;20048;-85
2023/04/13 00:22:46;;;;;;;5.93;2.53;;;6.30;99.90;;;;;;5051173;28;20080;-84
2023/04/13 00:25:13;;;;;;;3.33;2.22;;;6.20;99.90;;;;;;5054475;28;20048;-85
2023/04/13 00:27:39;;;;;;;4.35;2.38;;;6.30;99.90;;;;;;5035107;28;20041;-84
2023/04/13 00:30:16;;;;;;;5.80;2.38;;;6.30;99.90;;;;;;5051600;28;20029;-83
2023/04/13 00:32:43;;;;;;;3.30;2.35;;;6.30;99.90;;;;;;5056616;28;20056;-83
2023/04/13 00:35:10;;;;;;;3.72;2.17;;;6.40;99.90;;;;;;5059908;28;20044;-84
2023/04/13 00:37:37;;;;;;;3.45;2.20;;;6.40;99.90;;;;;;5065343;28;20044;-85
2023/04/13 00:40:05;;;;;;;5.03;2.67;;;6.50;99.90;;;;;;5051946;28;20044;-85
2023/04/13 00:42:30;;;;;;;6.57;2.97;;;6.40;99.90;;;;;;5050410;28;20417;-85
2023/04/13 00:44:56;;;;;;;4.10;2.65;;;6.40;99.90;;;;;;5051507;28;20128;-84
2023/04/13 00:47:31;;;;;;;4.85;2.50;;;6.40;99.90;;;;;;5060886;28;20116;-84
2023/04/13 00:50:00;;;;;;;4.63;2.40;;;6.40;99.90;;;;;;5062616;28;20033;-84
2023/04/13 00:52:25;;;;;;;3.28;2.72;;;6.40;99.90;;;;;;5066652;28;20041;-84
2023/04/13 00:54:55;;;;;;;5.20;2.85;;;6.40;99.90;;;;;;5054445;28;20036;-84
2023/04/13 00:57:24;;;;;;;4.20;2.55;;;6.40;99.90;;;;;;5049989;28;20094;-85
2023/04/13 00:59:51;;;;;;;4.82;2.70;;;6.40;99.90;;;;;;5049780;28;20041;-85
2023/04/13 01:02:17;;;;;;;4.40;2.78;;;6.40;99.90;;;;;;5051994;28;20069;-85
2023/04/13 01:04:48;;;;;;;3.83;2.80;;;6.30;99.90;;;;;;5058798;28;20423;-84
2023/04/13 01:07:32;;;;;;;4.57;2.72;;;6.30;99.90;;;;;;5049119;28;20167;-85
2023/04/13 01:10:05;;;;;;;;;;;6.30;99.90;;;;;;5049939;28;20067;-86
2023/04/13 01:12:44;;;;;;;6.43;3.40;;;6.30;99.90;;;;;;5056765;28;19964;-86
2023/04/13 01:15:13;;;;;;;5.03;3.00;;;6.20;99.90;;;;;;5059851;28;20447;-86
2023/04/13 01:17:43;;;;;;;4.40;3.30;;;6.20;99.90;;;;;;5053623;28;20056;-83
2023/04/13 01:20:14;;;;;;;5.82;4.03;;;6.20;99.90;;;;;;5055776;28;20048;-84
2023/04/13 01:22:54;;;;;;;5.65;3.17;;;6.10;99.90;;;;;;5049862;28;20052;-83
2023/04/13 01:25:32;;;;;;;5.72;3.17;;;6.10;99.90;;;;;;5051923;28;20127;-83
2023/04/13 01:28:07;;;;;;;4.15;3.28;;;6.10;99.90;;;;;;5055457;28;20037;-84
2023/04/13 01:30:34;;;;;;;5.97;3.22;;;6.10;99.90;;;;;;5051508;28;20032;-83
2023/04/13 01:33:01;;;;;;;4.05;2.92;;;6.10;99.90;;;;;;5055498;28;20481;-84
2023/04/13 01:35:28;;;;;;;3.97;3.10;;;6.00;99.90;;;;;;5052806;28;20085;-83
2023/04/13 01:37:54;;;;;;;6.85;3.25;;;6.00;99.90;;;;;;5056457;28;20045;-83
2023/04/13 01:40:21;;;;;;;3.45;2.60;;;6.00;99.90;;;;;;5052524;28;20098;-84
2023/04/13 01:42:46;;;;;;;5.18;2.65;;;6.00;99.90;;;;;;5053549;28;20040;-83
2023/04/13 01:45:16;;;;;;;6.00;3.22;;;6.00;99.90;;;;;;5051693;28;20386;-83
2023/04/13 01:48:10;;;;;;;5.13;2.92;;;6.00;99.90;;;;;;5052659;28;20136;-83
2023/04/13 01:50:47;;;;;;;3.83;2.63;;;6.00;99.90;;;;;;5049165;28;20048;-81
2023/04/13 01:53:19;;;;;;;4.65;2.75;;;6.00;99.90;;;;;;5051689;28;20037;-83
2023/04/13 01:55:47;;;;;;;6.05;2.90;;;6.00;99.90;;;;;;5052975;28;20045;-84
2023/04/13 01:58:14;;;;;;;3.47;2.40;;;6.00;99.90;;;;;;5048561;28;20033;-83
2023/04/13 02:00:40;;;;;;;6.20;2.47;;;6.00;99.90;;;;;;5053344;28;20049;-84
2023/04/13 02:03:09;;;;;;;5.60;2.70;;;6.00;99.90;;;;;;5057464;28;20045;-83
2023/04/13 02:05:39;;;;;;;4.25;2.20;;;5.90;99.90;;;;;;5058352;28;20071;-81
2023/04/13 02:08:08;;;;;;;3.00;2.15;;;5.90;99.90;;;;;;5056767;28;20077;-83
2023/04/13 02:10:36;;;;;;;3.70;2.22;;;5.90;99.90;;;;;;5058704;28;20142;-84
2023/04/13 02:13:03;;;;;;;4.65;2.63;;;5.90;99.90;;;;;;5057649;28;20037;-84
2023/04/13 02:15:29;;;;;;;6.22;2.70;;;5.90;99.90;;;;;;5054476;28;20460;-85
2023/04/13 02:17:55;;;;;;;4.32;2.17;;;5.90;99.90;;;;;;5057017;28;20045;-84
2023/04/13 02:20:20;;;;;;;4.10;2.08;;;6.00;99.90;;;;;;5059359;28;20037;-83
2023/04/13 02:22:46;;;;;;;6.07;2.58;;;6.00;99.90;;;;;;5057989;28;20571;-84
2023/04/13 02:25:14;;;;;;;3.40;2.00;;;5.90;99.90;;;;;;5052717;28;20069;-83
2023/04/13 02:27:40;;;;;;;3.80;2.30;;;5.90;99.90;;;;;;5058894;28;20106;-84
2023/04/13 02:30:08;;;;;;;5.63;1.90;;;6.00;99.90;;;;;;5058007;28;20041;-84
2023/04/13 02:32:36;;;;;;;4.88;1.80;;;5.90;99.90;;;;;;5063787;28;20040;-85
2023/04/13 02:35:02;;;;;;;3.83;2.20;;;5.90;99.90;;;;;;5054692;28;20048;-84
2023/04/13 02:37:30;;;;;;;3.58;2.28;;;6.00;99.90;;;;;;5052338;28;20040;-85
2023/04/13 02:39:55;;;;;;;4.53;2.30;;;5.90;99.90;;;;;;5053640;28;20051;-84
2023/04/13 02:42:22;;;;;;;4.50;2.30;;;5.90;99.90;;;;;;5059303;28;20037;-85
2023/04/13 02:44:48;;;;;;;3.03;1.90;;;5.90;99.90;;;;;;5054962;28;20052;-85
2023/04/13 02:47:15;;;;;;;3.17;1.80;;;5.90;99.90;;;;;;5054392;28;20052;-84
2023/04/13 02:49:41;;;;;;;3.22;1.70;;;5.90;99.90;;;;;;5057356;28;20115;-84
2023/04/13 02:52:08;;;;;;;2.97;1.80;;;6.10;99.90;;;;;;5056862;28;20029;-84
2023/04/13 02:54:33;;;;;;;3.65;1.88;;;5.90;99.90;;;;;;5054608;28;20064;-85
2023/04/13 02:57:00;;;;;;;4.32;2.10;;;5.90;99.90;;;;;;5051917;28;20412;-84
2023/04/13 02:59:27;;;;;;;3.00;1.67;;;5.90;99.90;;;;;;5052267;28;20065;-84
2023/04/13 03:01:57;;;;;;;3.53;1.70;;;5.90;99.90;;;;;;5052113;28;20138;-84
2023/04/13 03:04:23;;;;;;;3.35;1.50;;;5.90;99.90;;;;;;5058810;28;20048;-85
2023/04/13 03:06:49;;;;;;;3.03;1.45;;;5.90;99.90;;;;;;5051200;28;20036;-84
2023/04/13 03:09:16;;;;;;;4.72;1.88;;;6.00;99.90;;;;;;5055739;28;20035;-85
2023/04/13 03:11:42;;;;;;;3.60;1.55;;;6.00;99.90;;;;;;5054693;28;20040;-85
2023/04/13 03:14:11;;;;;;;2.92;1.50;;;5.90;99.90;;;;;;5050263;28;20492;-85
2023/04/13 03:16:37;;;;;;;6.20;1.75;;;6.00;99.90;;;;;;5051978;28;20127;-85
2023/04/13 03:19:04;;;;;;;3.28;1.70;;;5.90;99.90;;;;;;5058050;28;20064;-85
2023/04/13 03:21:30;;;;;;;3.58;1.55;;;6.00;99.90;;;;;;5050466;28;20036;-84
2023/04/13 03:23:56;;;;;;;6.82;1.85;;;6.00;99.90;;;;;;5052137;28;20163;-84
2023/04/13 03:26:24;;;;;;;2.83;1.60;;;6.00;99.90;;;;;;5050446;28;20039;-83
2023/04/13 03:28:49;;;;;;;2.45;1.60;;;6.00;99.90;;;;;;5058888;28;20072;-84
2023/04/13 03:31:16;;;;;;;3.00;1.67;;;5.90;99.90;;;;;;5054308;28;20086;-85
2023/04/13 03:33:42;;;;;;;3.72;1.95;;;5.90;99.90;;;;;;5038124;28;20093;-85
2023/04/13 03:36:08;;;;;;;2.83;1.90;;;6.00;99.90;;;;;;5063629;28;20041;-84
2023/04/13 03:38:33;;;;;;;4.28;1.85;;;6.00;99.90;;;;;;5052878;28;20479;-85
2023/04/13 03:40:59;;;;;;;4.82;2.10;;;6.00;99.90;;;;;;5056357;28;20115;-83
2023/04/13 03:43:25;;;;;;;5.30;1.90;;;5.90;99.90;;;;;;5055665;28;20048;-84
2023/04/13 03:45:51;;;;;;;3.50;1.90;;;6.00;99.90;;;;;;5051960;28;20045;-85
2023/04/13 03:48:16;;;;;;;3.00;1.83;;;6.00;99.90;;;;;;5061304;28;20088;-85
2023/04/13 03:50:42;;;;;;;4.20;1.85;;;6.00;99.90;;;;;;5057985;28;20094;-84
2023/04/13 03:53:08;;;;;;;4.22;2.17;;;5.90;99.90;;;;;;5040466;28;20064;-84
2023/04/13 03:55:33;;;;;;;4.22;1.92;;;6.00;99.90;;;;;;4997173;28;1090355;-84
2023/04/13 03:58:00;;;;;;;4.43;1.92;;;6.00;99.90;;;;;;5051128;28;20056;-85
2023/04/13 04:00:26;;;;;;;3.75;2.13;;;6.00;99.90;;;;;;5058436;28;20102;-84
2023/04/13 04:02:51;;;;;;;3.20;2.05;;;6.00;99.90;;;;;;5064002;28;20040;-83
2023/04/13 04:05:17;;;;;;;2.88;2.03;;;6.00;99.90;;;;;;5052691;28;20036;-84
2023/04/13 04:07:42;;;;;;;4.25;2.20;;;6.00;99.90;;;;;;5059258;28;20036;-84
2023/04/13 04:10:08;;;;;;;4.15;1.90;;;6.00;99.90;;;;;;5050754;28;20036;-84
2023/04/13 04:12:34;;;;;;;3.58;2.08;;;6.00;99.90;;;;;;5054234;28;20049;-84
2023/04/13 04:15:00;;;;;;;5.00;1.92;;;6.00;99.90;;;;;;5053664;28;20443;-84
2023/04/13 04:17:26;;;;;;;3.33;1.90;;;6.00;99.90;;;;;;5055218;28;20041;-85
2023/04/13 04:19:51;;;;;;;2.95;1.80;;;6.00;99.90;;;;;;5052223;28;20401;-85
2023/04/13 04:22:17;;;;;;;3.05;1.90;;;6.00;99.90;;;;;;5051274;28;20507;-84
2023/04/13 04:24:43;;;;;;;3.38;2.17;;;6.00;99.90;;;;;;5049901;28;20037;-84
2023/04/13 04:27:08;;;;;;;5.20;2.10;;;5.90;99.90;;;;;;5059893;28;20556;-84
2023/04/13 04:29:34;;;;;;;3.08;1.92;;;5.90;99.90;;;;;;5064572;28;20385;-84
2023/04/13 04:32:02;;;;;;;4.07;2.03;;;5.80;99.90;;;;;;5059041;28;20094;-84
2023/04/13 04:34:28;;;;;;;2.83;1.80;;;5.80;99.90;;;;;;5053194;28;20401;-85
2023/04/13 04:36:57;;;;;;;2.80;1.80;;;5.80;99.90;;;;;;5055207;28;20048;-84
2023/04/13 04:39:23;;;;;;;2.53;1.90;;;5.70;99.90;;;;;;5049685;28;20546;-84
2023/04/13 04:41:53;;;;;;;3.47;2.00;;;5.60;99.90;;;;;;5055831;28;20044;-85
2023/04/13 04:44:29;;;;;;;3.03;2.00;;;5.60;99.90;;;;;;5056468;28;20475;-85
2023/04/13 04:46:57;;;;;;;3.08;2.10;;;5.60;99.90;;;;;;5050198;28;20055;-85
2023/04/13 04:49:24;;;;;;;3.90;2.05;;;5.60;99.90;;;;;;5058616;28;20044;-84
2023/04/13 04:51:50;;;;;;;4.07;1.90;;;5.50;99.90;;;;;;5051403;28;20051;-84
2023/04/13 04:54:17;;;;;;;4.70;1.85;;;5.50;99.90;;;;;;5054921;28;20076;-84
2023/04/13 04:56:44;;;;;;;3.22;2.13;;;5.50;99.90;;;;;;5049611;28;20048;-84
2023/04/13 04:59:10;;;;;;;3.15;2.28;;;5.50;99.90;;;;;;5055938;28;20045;-84
2023/04/13 05:01:35;;;;;;;2.60;2.20;;;5.60;99.90;;;;;;5052461;28;20408;-84
2023/04/13 05:04:01;;;;;;;3.28;2.50;;;5.60;99.90;;;;;;5050245;28;20069;-84
2023/04/13 05:06:32;;;;;;;6.07;2.70;;;5.60;99.90;;;;;;5052977;28;20489;-84
2023/04/13 05:09:02;;;;;;;4.18;2.92;;;5.60;99.90;;;;;;5057441;28;20112;-84
2023/04/13 05:11:31;;;;;;;5.63;3.50;;;5.60;99.90;;;;;;5054962;28;20558;-84
2023/04/13 05:13:56;;;;;;;4.88;3.58;;;5.60;99.90;;;;;;5059181;28;20041;-84
2023/04/13 05:16:23;;;;;;;4.47;3.40;;;5.60;99.90;;;;;;5049425;28;20041;-84
2023/04/13 05:18:49;;;;;;;5.32;4.00;;;5.70;99.90;;;;;;5051028;28;20040;-84
2023/04/13 05:21:15;;;;;;;6.63;3.92;;;5.70;99.90;;;;;;5049770;28;20167;-83
2023/04/13 05:23:41;;;;;;;5.10;4.00;;;5.80;99.90;;;;;;5050149;28;20072;-84
2023/04/13 05:26:10;;;;;;;6.05;3.58;;;5.80;99.90;;;;;;5053134;28;20032;-83
2023/04/13 05:28:35;;;;;;;5.55;3.83;;;5.90;99.90;;;;;;5049889;28;20082;-84
2023/04/13 05:31:06;;;;;;;5.38;4.00;;;5.90;99.90;;;;;;5052493;28;20036;-84
2023/04/13 05:33:35;;;;;;;5.63;3.67;;;5.90;99.90;;;;;;5058895;28;20139;-85
2023/04/13 05:36:02;;;;;;;5.50;3.83;;;5.90;99.90;;;;;;5050689;28;20033;-84
2023/04/13 05:38:28;;;;;;;5.25;3.83;;;5.90;99.90;;;;;;5050131;28;20048;-85
2023/04/13 05:40:53;;;;;;;6.75;3.65;;;6.00;99.90;;;;;;5045997;28;20045;-83
2023/04/13 05:43:19;;;;;;;7.82;3.88;;;6.00;99.90;;;;;;5060957;28;20568;-83
2023/04/13 05:45:45;;;;;;;5.32;3.65;;;6.00;99.90;;;;;;5060069;28;20076;-84
2023/04/13 05:48:11;;;;;;;6.13;3.67;;;6.10;99.90;;;;;;5061641;28;20699;-84
2023/04/13 05:50:36;;;;;;;5.57;3.65;;;6.10;99.90;;;;;;5062211;28;20054;-85
2023/04/13 05:53:04;;;;;;;6.35;3.65;;;6.10;99.90;;;;;;5064537;28;20116;-84
2023/04/13 05:55:30;;;;;;;4.20;3.20;;;6.20;99.90;;;;;;5063772;28;20036;-84
2023/04/13 05:57:55;;;;;;;6.45;3.67;;;6.20;99.90;;;;;;5043231;28;20117;-86
2023/04/13 06:00:21;;;;;;;5.20;3.20;;;6.30;99.90;;;;;;5064675;28;20029;-85
2023/04/13 06:02:49;;;;;;;4.40;3.40;;;6.50;99.90;;;;;;5063547;28;20057;-84
2023/04/13 06:05:17;;;;;;;5.32;2.95;;;6.60;99.90;;;;;;5063702;28;20504;-84
2023/04/13 06:07:43;;;;;;;6.53;3.03;;;6.70;99.90;;;;;;5062957;28;20053;-84
2023/04/13 06:10:10;;;;;;;5.00;3.00;;;6.70;99.90;;;;;;5066670;28;20575;-85
2023/04/13 06:12:36;;;;;;;6.78;3.03;;;6.80;99.90;;;;;;5063571;28;20044;-85
2023/04/13 06:15:02;;;;;;;5.65;3.17;;;6.80;99.90;;;;;;5060522;28;20045;-84
2023/04/13 06:17:28;;;;;;;7.63;3.03;;;6.80;99.90;;;;;;5065123;28;20383;-85
2023/04/13 06:19:54;;;;;;;5.93;3.00;;;6.70;99.90;;;;;;5045661;28;20041;-84
2023/04/13 06:22:22;;;;;;;7.50;3.00;;;6.70;99.90;;;;;;5070474;28;20516;-83
2023/04/13 06:24:50;;;;;;;9.02;3.20;;;6.60;99.90;;;;;;5046969;28;20047;-86
2023/04/13 06:27:17;;;;;;;6.70;2.75;;;6.60;99.90;;;;;;5046836;28;20064;-86
2023/04/13 06:29:43;;;;;;;4.15;2.70;;;6.90;99.90;;;;;;5042047;28;20033;-83
2023/04/13 06:32:09;;;;;;;5.78;3.03;;;6.50;99.90;;;;;;5066460;28;20072;-84
2023/04/13 06:34:34;;;;;;;3.58;1.95;;;6.60;99.90;;;;;;5064092;28;20084;-84
2023/04/13 06:37:00;;;;;;;3.05;1.90;;;6.50;99.90;;;;;;5067555;28;20530;-84
2023/04/13 06:39:27;;;;;;;3.20;2.22;;;6.50;99.90;;;;;;5061532;28;20056;-83
2023/04/13 06:41:52;;;;;;;5.60;2.70;;;6.50;99.90;;;;;;5045404;28;20043;-85
2023/04/13 06:44:18;;;;;;;7.45;3.17;;;6.50;99.90;;;;;;5062670;28;20089;-84
2023/04/13 06:46:43;;;;;;;5.68;2.83;;;6.50;99.90;;;;;;5055953;28;20097;-85
2023/04/13 06:49:09;;;;;;;6.60;3.10;;;6.40;99.90;;;;;;5046622;28;20033;-85
2023/04/13 06:51:35;;;;;;;5.20;2.97;;;6.50;99.90;;;;;;5064909;28;20036;-84
2023/04/13 06:54:01;;;;;;;8.75;3.88;;;6.50;99.90;;;;;;5070371;28;20044;-85
2023/04/13 06:56:26;;;;;;;7.15;3.00;;;6.50;99.90;;;;;;5065244;28;20063;-85
2023/04/13 06:58:52;;;;;;;5.53;3.20;;;6.50;99.90;;;;;;5069144;28;20186;-84
2023/04/13 07:01:17;;;;;;;7.35;4.28;;;6.50;99.90;;;;;;5064317;28;20067;-85
2023/04/13 07:03:43;;;;;;;9.40;3.92;;;6.60;99.90;;;;;;5055141;28;20052;-84
2023/04/13 07:06:09;;;;;;;12.15;4.05;;;6.60;99.90;;;;;;5063887;28;20033;-84
2023/04/13 07:08:35;;;;;;;8.93;4.25;;;6.60;99.90;;;;;;5064521;28;20036;-84
2023/04/13 07:11:01;;;;;;;8.15;4.13;;;6.60;99.90;;;;;;5067370;28;20087;-82
2023/04/13 07:13:27;;;;;;;7.35;3.85;;;6.70;99.90;;;;;;5065791;28;20058;-83
2023/04/13 07:15:52;;;;;;;8.90;4.30;;;6.70;99.90;;;;;;5068642;28;20530;-83
2023/04/13 07:18:18;;;;;;;9.18;4.05;;;6.70;99.90;;;;;;5063622;28;20450;-84
2023/04/13 07:20:44;;;;;;;8.63;4.20;;;6.80;99.90;;;;;;5058107;28;20049;-83
2023/04/13 07:23:10;;;;;;;6.63;4.00;;;6.80;99.90;;;;;;5052535;28;20033;-84
2023/04/13 07:25:36;;;;;;;7.13;3.97;;;6.80;99.90;;;;;;5065310;28;20033;-84
2023/04/13 07:28:01;;;;;;;8.48;4.47;;;6.80;99.90;;;;;;5066738;28;20565;-85
2023/04/13 07:30:27;;;;;;;8.10;4.38;;;6.90;99.90;;;;;;5064293;28;20059;-85
2023/04/13 07:32:53;;;;;;;10.02;4.40;;;6.80;99.90;;;;;;5065373;28;20032;-84
2023/04/13 07:35:18;;;;;;;7.05;4.53;;;6.90;99.90;;;;;;5053947;28;20076;-84
2023/04/13 07:37:45;;;;;;;10.57;3.97;;;6.90;99.90;;;;;;5051060;28;20467;-84
2023/04/13 07:40:11;;;;;;;8.43;4.35;;;7.00;99.90;;;;;;5054358;28;20067;-84
2023/04/13 07:42:38;;;;;;;9.48;4.05;;;7.00;99.90;;;;;;5060847;28;20044;-84
2023/04/13 07:45:04;;;;;;;8.70;4.22;;;7.10;99.90;;;;;;5050371;28;20053;-84
2023/04/13 07:47:30;;;;;;;10.70;3.67;;;7.20;99.90;;;;;;5061567;28;20071;-84
2023/04/13 07:49:55;;;;;;;7.13;3.13;;;7.30;99.90;;;;;;5054701;28;20064;-83
2023/04/13 07:52:21;;;;;;;7.93;3.47;;;7.40;99.90;;;;;;5059148;28;20059;-84
2023/04/13 07:54:47;;;;;;;10.50;3.67;;;7.50;99.90;;;;;;5054553;28;20052;-84
2023/04/13 07:57:13;;;;;;;9.55;3.33;;;7.90;99.90;;;;;;5060953;28;20033;-84
2023/04/13 07:59:38;;;;;;;8.38;3.28;;;8.30;99.90;;;;;;5054367;28;20510;-83
2023/04/13 08:02:04;;;;;;;5.07;2.50;;;8.50;99.90;;;;;;5055270;28;20492;-83
2023/04/13 08:04:30;;;;;;;5.82;2.25;;;8.50;99.90;;;;;;5049748;28;20033;-84
2023/04/13 08:06:57;;;;;;;5.60;1.80;;;8.50;99.90;;;;;;5051577;28;20032;-85
2023/04/13 08:09:22;;;;;;;6.60;2.55;;;8.40;99.90;;;;;;5057282;28;20047;-83
2023/04/13 08:11:48;;;;;;;8.23;2.65;;;8.30;99.90;;;;;;5054207;28;20456;-83
2023/04/13 08:14:14;;;;;;;6.38;2.97;;;8.20;99.90;;;;;;5054329;28;20055;-83
2023/04/13 08:16:40;;;;;;;7.20;1.70;;;8.00;99.90;;;;;;5068728;28;20051;-84
2023/04/13 08:19:06;;;;;;;3.47;1.58;;;7.90;99.90;;;;;;5061054;28;20033;-83
2023/04/13 08:21:31;;;;;;;4.47;1.92;;;7.80;99.90;;;;;;5070594;28;20032;-84
2023/04/13 08:23:57;;;;;;;6.25;1.83;;;7.70;99.90;;;;;;5062478;28;20044;-84
2023/04/13 08:26:23;;;;;;;5.78;1.65;;;7.60;99.90;;;;;;5069570;28;20044;-85
2023/04/13 08:28:51;;;;;;;4.25;1.65;;;7.60;99.90;;;;;;5065517;28;20123;-84
2023/04/13 08:31:17;;;;;;;4.30;1.80;;;7.60;99.90;;;;;;5064909;28;20102;-84
2023/04/13 08:33:43;;;;;;;5.68;1.77;;;7.80;99.90;;;;;;5065049;28;20056;-83
2023/04/13 08:36:08;;;;;;;3.72;1.70;;;7.80;99.90;;;;;;5067882;28;20044;-83
2023/04/13 08:38:34;;;;;;;4.03;1.95;;;8.00;99.90;;;;;;5067085;28;20035;-83
2023/04/13 08:41:02;;;;;;;7.32;2.13;;;8.30;99.90;;;;;;5062408;28;20093;-84
2023/04/13 08:43:28;;;;;;;3.58;1.45;;;8.10;99.90;;;;;;5065846;28;20033;-85
2023/04/13 08:45:53;;;;;;;4.07;1.50;;;8.10;99.90;;;;;;5063747;28;20049;-84
2023/04/13 08:48:21;;;;;;;3.60;1.67;;;8.10;99.90;;;;;;5067011;28;20033;-84
2023/04/13 08:50:52;;;;;;;4.20;1.65;;;8.20;99.90;;;;;;5047802;28;20393;-84
2023/04/13 08:53:18;;;;;;;3.30;1.40;;;8.20;99.90;;;;;;5068742;28;20065;-84
2023/04/13 08:55:45;;;;;;;4.28;1.40;;;8.40;99.90;;;;;;5066921;28;20213;-83
2023/04/13 08:58:19;;;;;;;2.42;1.20;;;8.50;99.90;;;;;;5061230;28;20040;-84
2023/04/13 09:00:46;;;;;;;2.55;1.10;;;8.50;99.90;;;;;;5064607;28;20081;-82
2023/04/13 09:03:15;;;;;;;3.78;1.10;;;8.50;99.90;;;;;;5053959;28;20073;-83
2023/04/13 09:05:41;;;;;;;2.25;1.60;;;8.50;99.90;;;;;;5051853;28;20033;-85
2023/04/13 09:08:10;;;;;;;4.53;1.40;;;8.40;99.90;;;;;;5050213;28;20041;-83
2023/04/13 09:10:36;;;;;;;2.10;1.10;;;8.30;99.90;;;;;;5049196;28;20102;-84
2023/04/13 09:13:01;;;;;;;3.38;1.50;;;8.40;99.90;;;;;;5053717;28;20403;-84
2023/04/13 09:15:31;;;;;;;4.72;1.63;;;8.40;99.90;;;;;;5056800;28;20060;-84
2023/04/13 09:18:06;;;;;;;6.10;1.52;;;8.50;99.90;;;;;;5049815;28;20078;-85
2023/04/13 09:20:31;;;;;;;3.88;1.70;;;8.50;99.90;;;;;;5054882;28;20162;-85
2023/04/13 09:22:57;;;;;;;3.85;1.70;;;8.50;99.90;;;;;;5036649;28;20066;-85
2023/04/13 09:25:28;;;;;;;3.53;1.60;;;8.50;99.90;;;;;;5059114;28;20462;-85
2023/04/13 09:27:55;;;;;;;3.50;1.50;;;8.70;99.90;;;;;;5051517;28;20066;-85
2023/04/13 09:30:22;;;;;;;3.22;1.52;;;8.90;99.90;;;;;;5060569;28;20082;-84
2023/04/13 09:33:03;;;;;;;4.32;1.52;;;9.10;99.90;;;;;;5056764;28;20492;-85
2023/04/13 09:35:30;;;;;;;5.40;2.00;;;9.10;99.90;;;;;;5057534;28;20541;-85
2023/04/13 09:37:56;;;;;;;4.78;1.50;;;8.90;99.90;;;;;;5044292;28;20395;-85
2023/04/13 09:40:22;;;;;;;3.30;1.38;;;8.80;99.90;;;;;;5060923;28;20037;-84
2023/04/13 09:42:59;;;;;;;2.65;1.10;;;8.70;99.90;;;;;;5050437;28;20163;-85
2023/04/13 09:45:36;;;;;;;2.75;0.68;;;8.30;99.90;;;;;;5033221;28;20047;-86
2023/04/13 09:48:03;;;;;;;2.58;0.43;;;8.20;99.90;;;;;;5039956;28;20574;-86
2023/04/13 09:50:31;;;;;;;1.15;0.32;;;8.10;99.90;;;;;;5050661;28;20428;-86
2023/04/13 09:53:01;;;;;;;1.58;0.43;;;7.90;99.90;;;;;;5059039;28;20045;-85
2023/04/13 09:55:28;;;;;;;3.63;0.45;;;7.80;99.90;;;;;;5058916;28;20044;-86
2023/04/13 09:57:53;;;;;;;1.88;0.55;;;7.60;99.90;;;;;;5039275;28;20041;-85
2023/04/13 10:00:20;;;;;;;1.90;0.77;;;7.40;99.90;;;;;;5032811;28;20047;-84
2023/04/13 10:02:50;;;;;;;1.85;0.45;;;7.60;99.90;;;;;;5055174;28;20095;-85
2023/04/13 10:05:17;;;;;;;1.48;0.40;;;7.10;99.90;;;;;;5052759;28;20041;-85
2023/04/13 10:07:43;;;;;;;1.48;0.43;;;7.10;99.90;;;;;;5056699;28;20119;-86
2023/04/13 10:10:09;;;;;;;1.48;0.50;;;7.20;99.90;;;;;;5051909;28;20045;-85
2023/04/13 10:12:44;;;;;;;1.00;0.38;;;7.50;99.90;;;;;;5038907;28;20035;-85
2023/04/13 10:15:34;;;;;;;1.88;0.88;;;7.60;99.90;;;;;;5057687;28;20049;-85
2023/04/13 10:18:31;;;;;;;2.17;0.65;;;7.80;99.90;;;;;;5044026;28;20044;-86
2023/04/13 10:20:58;;;;;;;1.83;0.50;;;8.00;99.90;;;;;;5054727;28;20055;-86
2023/04/13 10:23:26;;;;;;;1.17;0.38;;;8.40;99.90;;;;;;5060927;28;20133;-86
2023/04/13 10:25:53;;;;;;;1.67;0.40;;;8.60;99.90;;;;;;5053170;28;20618;-85
2023/04/13 10:28:20;;;;;;;1.00;0.40;;;8.90;99.90;;;;;;5058591;28;20052;-84
2023/04/13 10:30:49;;;;;;;2.25;0.40;;;9.40;99.90;;;;;;5040932;28;20485;-85
2023/04/13 10:33:15;;;;;;;1.20;0.50;;;9.10;99.90;;;;;;5055762;28;20068;-85
2023/04/13 10:35:41;;;;;;;1.08;0.40;;;9.10;99.90;;;;;;5056489;28;20068;-86
2023/04/13 10:38:09;;;;;;;2.15;0.90;;;9.10;99.90;;;;;;5067306;28;20052;-87
2023/04/13 10:40:46;;;;;;;1.83;0.52;;;9.10;99.90;;;;;;5053843;28;20128;-86
2023/04/13 10:43:27;;;;;;;3.10;0.40;;;9.20;99.90;;;;;;5064030;28;20067;-86
2023/04/13 10:46:08;;;;;;;2.92;0.75;;;9.50;99.90;;;;;;5060205;28;20079;-85
2023/04/13 10:48:35;;;;;;;0.65;0.30;;;9.70;99.90;;;;;;5058570;28;20048;-84
2023/04/13 10:51:01;;;;;;;1.23;0.60;;;10.00;99.90;;;;;;5052223;28;20040;-85
2023/04/13 10:53:29;;;;;;;4.43;0.90;;;10.30;99.90;;;;;;5061362;28;20032;-85
2023/04/13 10:55:56;;;;;;;3.72;1.05;;;10.50;99.90;;;;;;5060698;28;20477;-84
2023/04/13 10:58:22;;;;;;;2.75;0.93;;;10.50;99.90;;;;;;5053244;28;20489;-85
2023/04/13 11:00:49;;;;;;;2.35;0.80;;;10.30;99.90;;;;;;5040471;28;20048;-86
2023/04/13 11:03:16;;;;;;;3.70;0.90;;;10.00;99.90;;;;;;5062430;28;20037;-86
2023/04/13 11:05:46;;;;;;;3.58;1.15;;;9.90;99.90;;;;;;5048702;28;20167;-86
2023/04/13 11:08:19;;;;;;;4.53;0.88;;;9.80;99.90;;;;;;5054352;28;20037;-86
2023/04/13 11:10:55;;;;;;;3.97;1.00;;;9.60;99.90;;;;;;5064040;28;20039;-86
2023/04/13 11:13:24;;;;;;;4.72;1.00;;;9.30;99.90;;;;;;5059475;28;20264;-86
2023/04/13 11:15:50;;;;;;;3.33;1.42;;;9.20;99.90;;;;;;5045470;28;20052;-88
2023/04/13 11:18:26;;;;;;;4.38;1.23;;;9.00;99.90;;;;;;5040441;28;20045;-86
2023/04/13 11:20:52;;;;;;;5.50;1.40;;;8.90;99.90;;;;;;5043860;28;20048;-87
2023/04/13 11:23:18;;;;;;;3.47;1.27;;;8.90;99.90;;;;;;5043512;28;20036;-87
2023/04/13 11:25:56;;;;;;;6.30;1.80;;;9.10;99.90;;;;;;5058970;28;20045;-88
2023/04/13 11:28:23;;;;;;;7.88;1.98;;;9.10;99.90;;;;;;5038851;28;20044;-87
2023/04/13 11:30:54;;;;;;;5.70;1.50;;;9.10;99.90;;;;;;5043825;28;20041;-86
2023/04/13 11:33:28;;;;;;;9.18;1.90;;;9.40;99.90;;;;;;5054354;28;20370;-86
2023/04/13 11:35:55;;;;;;;7.00;1.83;;;9.60;99.90;;;;;;5060955;28;20052;-87
2023/04/13 11:38:22;;;;;;;8.73;1.83;;;9.80;99.90;;;;;;5062238;28;21719;-87
2023/04/13 11:40:48;;;;;;;11.30;2.22;;;9.70;99.90;;;;;;5044881;28;20076;-87
2023/04/13 11:43:16;;;;;;;11.77;2.85;;;9.60;99.90;;;;;;5057626;28;20392;-87
2023/04/13 11:45:42;;;;;;;11.27;2.80;;;9.60;99.90;;;;;;5053391;28;20056;-87
2023/04/13 11:48:08;;;;;;;13.02;2.63;;;9.60;99.90;;;;;;5059647;28;20127;-87
2023/04/13 11:50:35;;;;;;;8.00;2.50;;;9.80;99.90;;;;;;5045417;28;20036;-88
2023/04/13 11:53:02;;;;;;;12.82;2.17;;;10.00;99.90;;;;;;5043875;28;20128;-86
2023/04/13 11:55:28;;;;;;;11.10;2.40;;;10.40;99.90;;;;;;5060057;28;20037;-85
2023/04/13 11:57:54;;;;;;;12.30;2.58;;;10.70;99.90;;;;;;5040559;28;20041;-88
2023/04/13 12:00:25;;;;;;;11.95;2.13;;;10.80;99.90;;;;;;5039888;28;20033;-86
2023/04/13 12:02:52;;;;;;;12.88;2.97;;;11.00;99.90;;;;;;5054272;28;20091;-87
2023/04/13 12:05:26;;;;;;;8.60;2.08;;;11.00;99.90;;;;;;5055558;28;20132;-86
2023/04/13 12:07:53;;;;;;;10.05;2.05;;;10.90;99.90;;;;;;5042428;28;20051;-86
2023/04/13 12:10:23;;;;;;;10.07;1.77;;;11.00;99.90;;;;;;5045065;28;20029;-87
2023/04/13 12:13:05;;;;;;;11.05;1.77;;;10.80;99.90;;;;;;5047722;28;20032;-86
2023/04/13 12:15:32;;;;;;;12.00;1.60;;;10.70;99.90;;;;;;5040242;28;20036;-87
2023/04/13 12:18:00;;;;;;;9.48;1.67;;;10.70;99.90;;;;;;5036581;28;20039;-86
2023/04/13 12:20:34;;;;;;;9.55;2.15;;;10.60;99.90;;;;;;5052372;28;20075;-84
2023/04/13 12:23:01;;;;;;;8.07;2.50;;;10.60;99.90;;;;;;5056756;28;20514;-86
2023/04/13 12:25:28;;;;;;;10.02;1.90;;;10.50;99.90;;;;;;5057001;28;20041;-86
2023/04/13 12:28:10;;;;;;;8.27;1.58;;;10.50;99.90;;;;;;5055137;28;20148;-86
2023/04/13 12:30:50;;;;;;;11.25;2.22;;;10.50;99.90;;;;;;5062638;28;20045;-85
2023/04/13 12:33:16;;;;;;;8.80;2.10;;;11.00;99.90;;;;;;5067859;28;20029;-85
2023/04/13 12:35:41;;;;;;;10.90;2.17;;;10.40;99.90;;;;;;5066617;28;20047;-85
2023/04/13 12:38:07;;;;;;;9.05;1.90;;;10.60;99.90;;;;;;5051586;28;20083;-85
2023/04/13 12:40:33;;;;;;;8.13;2.28;;;11.00;99.90;;;;;;5046836;28;20170;-85
2023/04/13 12:42:59;;;;;;;5.53;1.70;;;10.10;99.90;;;;;;5057939;28;20043;-85
2023/04/13 12:45:24;;;;;;;7.35;2.00;;;10.00;99.90;;;;;;5036761;28;20037;-84
2023/04/13 12:47:50;;;;;;;8.73;1.98;;;10.00;99.90;;;;;;5058862;28;20029;-85
2023/04/13 12:50:15;;;;;;;10.05;2.28;;;10.00;99.90;;;;;;5061089;28;20036;-84
2023/04/13 12:52:42;;;;;;;7.72;1.65;;;9.90;99.90;;;;;;5037670;28;20044;-84
2023/04/13 12:55:08;;;;;;;7.05;2.33;;;9.90;99.90;;;;;;5054755;28;20056;-85
2023/04/13 12:57:34;;;;;;;5.03;1.50;;;9.90;99.90;;;;;;5037693;28;20076;-84